createdAt,value
2022-12-01T00:13:04.428Z,66.02
2022-12-01T00:41:51.825Z,66.09
2022-12-01T01:10:40.054Z,66.12
2022-12-01T01:39:30.139Z,66.26
2022-12-01T02:08:18.944Z,66.14
2022-12-01T02:37:08.031Z,66.21
2022-12-01T03:05:55.173Z,66.34
2022-12-01T03:34:55.940Z,66.11
2022-12-01T04:03:56.817Z,65.77
2022-12-01T04:32:56.648Z,65.9
2022-12-01T05:01:57.834Z,65.75
2022-12-01T05:30:43.164Z,65.62
2022-12-01T05:59:42.658Z,65.55
2022-12-01T06:28:27.525Z,65.44
2022-12-01T06:57:18.109Z,65.74
2022-12-01T07:25:56.991Z,65.77
2022-12-01T07:54:53.361Z,65.57
2022-12-01T08:23:50.675Z,65.17
2022-12-01T08:52:35.408Z,65.19
2022-12-01T09:21:24.450Z,65.01
2022-12-01T09:50:02.143Z,64.92
2022-12-01T10:18:54.150Z,64.84
2022-12-01T10:47:37.931Z,64.77
2022-12-01T11:16:22.961Z,64.7
2022-12-01T11:45:00.495Z,64.63
2022-12-01T12:13:44.729Z,64.66
2022-12-01T12:42:27.523Z,64.67
2022-12-01T13:11:21.669Z,64.52
2022-12-01T13:40:00.720Z,64.45
2022-12-01T14:08:49.450Z,64.56
2022-12-01T14:37:31.044Z,64.8
2022-12-01T15:06:09.493Z,64.78
2022-12-01T15:34:54.182Z,64.77
2022-12-01T16:03:20.621Z,64.68
2022-12-01T16:32:20.085Z,64.91
2022-12-01T17:00:23.710Z,64.93
2022-12-01T17:29:05.744Z,65.07
2022-12-01T17:57:55.446Z,64.96
2022-12-01T18:26:44.506Z,64.9
2022-12-01T18:55:27.839Z,64.8
2022-12-01T19:24:23.241Z,64.74
2022-12-01T19:53:16.122Z,64.67
2022-12-01T20:22:09.914Z,64.66
2022-12-01T20:50:59.500Z,64.61
2022-12-01T21:19:54.579Z,65.16
2022-12-01T21:48:45.820Z,65.08
2022-12-01T22:17:28.999Z,64.97
2022-12-01T22:46:29.952Z,65.12
2022-12-01T23:15:17.953Z,65.17
2022-12-01T23:44:14.227Z,65.21
